»·PEaware :: N5268J L88-KSBP

N5268J :: L88-KSBP

FLIGHT INFORMATION

Flight Status: Arrived
Operator: Privately registered:
United States
More flights under this callsign
Pilot: John P. (31881)
Aircraft: BEECH AIRCRAFT BONANZA
(BE36)
More flights by this aircraft type
Origin: L88 New Cuyama
United States
Destination: KSBP San Luis Co Regl
United States
More flights between these airports :: More routes between these airports
Route:
File this flight plan on PilotEdge
Remarks:
Altitude:
(Current/Filed)
6,000ft
Speed:
(Current/Filed)
150kts
Departed: 04-Oct-20 07:47 PM
Arrived: 04-Oct-20 08:36 PM
Distance/Time
Traveled:
50nm/0:49
Distance/Time
To Go:
Arrived

Flight Plot

Page will automatically refresh every two minutes.


Map Options




Map Legend


Flown Route
Filed Route
Departure Airport
Arrival Airport
Navaid (VOR, NDB)
Fix

Horizontal Profiles

Position Reports

Time Latitude Longitude Heading Altitude Ground
Speed
04-Oct-20 19:26 34.942614 -119.690265 108 2179ft 0kts
04-Oct-20 19:27 34.942614 -119.690265 108 2179ft 0kts
04-Oct-20 19:28 34.942614 -119.690265 108 2179ft 0kts
04-Oct-20 19:29 34.942614 -119.690266 109 2179ft 0kts
04-Oct-20 19:30 34.942615 -119.690266 109 2179ft 0kts
04-Oct-20 19:34 34.942555 -119.689903 96 2180ft 0kts
04-Oct-20 19:35 34.942555 -119.689903 96 2180ft 0kts
04-Oct-20 19:36 34.942555 -119.689902 96 2180ft 0kts
04-Oct-20 19:37 34.942554 -119.689902 96 2180ft 0kts
04-Oct-20 19:38 34.942554 -119.689902 96 2180ft 0kts
04-Oct-20 19:39 34.942554 -119.689901 96 2180ft 0kts
04-Oct-20 19:40 34.942554 -119.689901 96 2180ft 0kts
04-Oct-20 19:41 34.942554 -119.689901 96 2180ft 0kts
04-Oct-20 19:42 34.942554 -119.689900 96 2180ft 0kts
04-Oct-20 19:43 34.942563 -119.689847 62 2180ft 5kts
04-Oct-20 19:44 34.942655 -119.690609 297 2178ft 11kts
04-Oct-20 19:45 34.942061 -119.690695 120 2180ft 30kts
04-Oct-20 19:46 34.933599 -119.665469 111 2872ft 93kts
04-Oct-20 19:47 34.929883 -119.670512 335 3777ft 92kts
04-Oct-20 19:48 34.943362 -119.696428 294 4552ft 92kts
04-Oct-20 19:49 34.952785 -119.725849 292 5187ft 93kts
04-Oct-20 19:50 34.961990 -119.755542 292 5556ft 94kts
04-Oct-20 19:51 34.971385 -119.785426 293 5697ft 93kts
04-Oct-20 19:52 34.981557 -119.817756 293 5966ft 137kts
04-Oct-20 19:53 34.996755 -119.866287 292 5970ft 161kts
04-Oct-20 19:54 35.012932 -119.917979 292 5966ft 164kts
04-Oct-20 19:55 35.029258 -119.970192 292 5967ft 165kts
04-Oct-20 19:56 35.045627 -120.022674 292 5971ft 166kts
04-Oct-20 19:57 35.062160 -120.075740 293 5959ft 166kts
04-Oct-20 19:58 35.078683 -120.128929 293 5965ft 168kts
04-Oct-20 19:59 35.095158 -120.181980 293 5952ft 165kts
04-Oct-20 20:00 35.111287 -120.234049 294 5936ft 163kts
04-Oct-20 20:01 35.127147 -120.285424 293 5939ft 162kts
04-Oct-20 20:02 35.143206 -120.337259 294 5962ft 165kts
04-Oct-20 20:03 35.159389 -120.389923 293 5962ft 165kts
04-Oct-20 20:04 35.175603 -120.442645 293 5961ft 166kts
04-Oct-20 20:05 35.185060 -120.495758 234 6025ft 168kts
04-Oct-20 20:06 35.147347 -120.480763 134 6021ft 155kts
04-Oct-20 20:07 35.118409 -120.447498 134 6038ft 140kts
04-Oct-20 20:08 35.089335 -120.414291 134 6033ft 143kts
04-Oct-20 20:09 35.060476 -120.381331 134 6018ft 140kts
04-Oct-20 20:10 35.033044 -120.348464 108 6030ft 135kts
04-Oct-20 20:11 35.059655 -120.342185 338 6037ft 137kts
04-Oct-20 20:12 35.094067 -120.361268 337 6031ft 134kts
04-Oct-20 20:13 35.128409 -120.380317 338 6036ft 136kts
04-Oct-20 20:14 35.160463 -120.403337 305 6034ft 137kts
04-Oct-20 20:15 35.176681 -120.445504 293 6038ft 136kts
04-Oct-20 20:16 35.165221 -120.473990 141 6044ft 138kts
04-Oct-20 20:17 35.136193 -120.441249 134 6030ft 154kts
04-Oct-20 20:18 35.115156 -120.393585 112 6032ft 163kts
04-Oct-20 20:19 35.095979 -120.342320 112 5270ft 169kts
04-Oct-20 20:20 35.078811 -120.290809 82 4558ft 147kts
04-Oct-20 20:21 35.108907 -120.289854 337 4538ft 125kts
04-Oct-20 20:22 35.135090 -120.314521 300 4541ft 122kts
04-Oct-20 20:23 35.148208 -120.353002 292 4539ft 123kts
04-Oct-20 20:24 35.160212 -120.392577 292 4537ft 124kts
04-Oct-20 20:25 35.172330 -120.431967 292 4535ft 123kts
04-Oct-20 20:26 35.184370 -120.471129 293 4548ft 124kts
04-Oct-20 20:27 35.192974 -120.511805 275 4525ft 123kts
04-Oct-20 20:28 35.188462 -120.555191 254 3979ft 137kts
04-Oct-20 20:29 35.163953 -120.577790 145 2838ft 128kts
04-Oct-20 20:30 35.161490 -120.546261 4 1658ft 125kts
04-Oct-20 20:31 35.175344 -120.568418 351 1642ft 102kts
04-Oct-20 20:32 35.200853 -120.584704 319 1850ft 118kts
04-Oct-20 20:33 35.220440 -120.612016 308 913ft 101kts
04-Oct-20 20:34 35.235825 -120.638377 304 200ft 63kts
04-Oct-20 20:35 35.242499 -120.648500 55 166ft 19kts
04-Oct-20 20:36 35.242547 -120.648181 114 167ft 0kts
04-Oct-20 20:37 35.242547 -120.648181 114 167ft 0kts
04-Oct-20 20:38 35.239921 -120.643624 124 183ft 23kts
04-Oct-20 20:39 35.239077 -120.641797 50 188ft 0kts
04-Oct-20 20:41 35.239077 -120.641797 50 188ft 0kts
04-Oct-20 20:42 35.239077 -120.641797 50 188ft 0kts

Navigation Log

Ident Type
Flight plan parsing failed, navigation log unavailable